DKFGT LOWW-LOWI
Flight info
| Callsign | DKFGT |
|---|---|
| Flight time | N/A |
| Altitude | 9000 |
| Route | 4744N01226E DCT 4734N01208E DCT M1 DCT LOWIS DCT BR DCT |
| Aircraft | DV20/L-V/L |
Departure
| Time | 2026-05-04 19:19 |
|---|---|
| Airport | Vienna International Airport (LOWW) |
Arrival
| Time | N/A |
|---|---|
| Airport | Innsbruck Airport (LOWI) |
| Time | Latitude | Longitude | Altitude | Speed | Heading |
|---|---|---|---|---|---|
| 2026-05-04 18:51 | 48.12771 | 16.53652 | 580 ft | 0 kts | 289° |
| 2026-05-04 19:07 | 48.12771 | 16.53649 | 581 ft | 3 kts | 289° |
| 2026-05-04 19:07 | 48.12756 | 16.53626 | 581 ft | 4 kts | 182° |
| 2026-05-04 19:08 | 48.12723 | 16.53598 | 582 ft | 8 kts | 217° |
| 2026-05-04 19:08 | 48.12673 | 16.53576 | 584 ft | 8 kts | 195° |
| 2026-05-04 19:08 | 48.12629 | 16.53560 | 586 ft | 5 kts | 206° |
| 2026-05-04 19:08 | 48.12603 | 16.53541 | 587 ft | 3 kts | 207° |
| 2026-05-04 19:09 | 48.12566 | 16.53513 | 588 ft | 9 kts | 205° |
| 2026-05-04 19:09 | 48.12487 | 16.53502 | 590 ft | 10 kts | 199° |
| 2026-05-04 19:09 | 48.12452 | 16.53478 | 591 ft | 0 kts | 205° |
| 2026-05-04 19:10 | 48.12444 | 16.53473 | 592 ft | 4 kts | 206° |
| 2026-05-04 19:10 | 48.12441 | 16.53471 | 592 ft | 0 kts | 206° |
| 2026-05-04 19:10 | 48.12414 | 16.53450 | 594 ft | 7 kts | 207° |
| 2026-05-04 19:11 | 48.12388 | 16.53431 | 595 ft | 0 kts | 205° |
| 2026-05-04 19:16 | 48.12372 | 16.53419 | 596 ft | 6 kts | 205° |
| 2026-05-04 19:16 | 48.12313 | 16.53406 | 597 ft | 9 kts | 170° |
| 2026-05-04 19:17 | 48.12248 | 16.53456 | 597 ft | 13 kts | 127° |
| 2026-05-04 19:17 | 48.12241 | 16.53474 | 596 ft | 0 kts | 114° |
| 2026-05-04 19:18 | 48.12189 | 16.53632 | 595 ft | 43 kts | 116° |
| 2026-05-04 19:19 | 48.12000 | 16.54206 | 666 ft | 71 kts | 115° |
| 2026-05-04 19:19 | 48.11798 | 16.54904 | 876 ft | 74 kts | 115° |
| 2026-05-04 19:19 | 48.11495 | 16.55311 | 1196 ft | 55 kts | 167° |
| 2026-05-04 19:19 | 48.11128 | 16.55363 | 1420 ft | 54 kts | 176° |
| 2026-05-04 19:20 | 48.10737 | 16.55273 | 1540 ft | 63 kts | 199° |
| 2026-05-04 19:20 | 48.10360 | 16.54895 | 1736 ft | 64 kts | 206° |
| 2026-05-04 19:20 | 48.10033 | 16.54458 | 1678 ft | 88 kts | 211° |
| 2026-05-04 19:20 | 48.09414 | 16.53817 | 1296 ft | 113 kts | 206° |
| 2026-05-04 19:21 | 48.08885 | 16.53026 | 1359 ft | 108 kts | 225° |
| 2026-05-04 19:21 | 48.08418 | 16.52100 | 1189 ft | 116 kts | 227° |
| 2026-05-04 19:21 | 48.07930 | 16.51163 | 1158 ft | 108 kts | 227° |
| 2026-05-04 19:21 | 48.07489 | 16.50303 | 1319 ft | 97 kts | 226° |
| 2026-05-04 19:22 | 48.07102 | 16.49512 | 1399 ft | 93 kts | 224° |
| 2026-05-04 19:22 | 48.06762 | 16.48760 | 1489 ft | 84 kts | 228° |
| 2026-05-04 19:22 | 48.06427 | 16.48022 | 1499 ft | 82 kts | 225° |
| 2026-05-04 19:22 | 48.06047 | 16.47291 | 1451 ft | 92 kts | 221° |
| 2026-05-04 19:23 | 48.05668 | 16.46563 | 1616 ft | 81 kts | 224° |
| 2026-05-04 19:23 | 48.05283 | 16.45745 | 1421 ft | 103 kts | 226° |
| 2026-05-04 19:23 | 48.04912 | 16.44807 | 1399 ft | 105 kts | 231° |
| 2026-05-04 19:23 | 48.04537 | 16.43844 | 1338 ft | 105 kts | 233° |
| 2026-05-04 19:24 | 48.04242 | 16.42855 | 1344 ft | 108 kts | 239° |
| 2026-05-04 19:24 | 48.04025 | 16.41906 | 1524 ft | 91 kts | 239° |
| 2026-05-04 19:24 | 48.03806 | 16.40970 | 1433 ft | 100 kts | 243° |
| 2026-05-04 19:24 | 48.03583 | 16.40003 | 1516 ft | 99 kts | 241° |
| 2026-05-04 19:25 | 48.03387 | 16.38988 | 1521 ft | 103 kts | 242° |
| 2026-05-04 19:25 | 48.03208 | 16.38020 | 1614 ft | 96 kts | 237° |
| 2026-05-04 19:25 | 48.02970 | 16.37094 | 1716 ft | 95 kts | 239° |
| 2026-05-04 19:25 | 48.02728 | 16.36138 | 1722 ft | 97 kts | 234° |
| 2026-05-04 19:26 | 48.02463 | 16.35280 | 1776 ft | 99 kts | 238° |
| 2026-05-04 19:26 | 48.02164 | 16.34250 | 1709 ft | 106 kts | 251° |
| 2026-05-04 19:26 | 48.02070 | 16.33175 | 1720 ft | 110 kts | 257° |
| 2026-05-04 19:26 | 48.02006 | 16.32399 | 1661 ft | 115 kts | 256° |
| 2026-05-04 19:27 | 48.01945 | 16.30870 | 1733 ft | 113 kts | 261° |
| 2026-05-04 19:27 | 48.01862 | 16.30098 | 1791 ft | 107 kts | 253° |
| 2026-05-04 19:27 | 48.01749 | 16.29067 | 1932 ft | 95 kts | 252° |
| 2026-05-04 19:27 | 48.01652 | 16.28108 | 2055 ft | 91 kts | 252° |
| 2026-05-04 19:28 | 48.01609 | 16.27189 | 2195 ft | 86 kts | 256° |
| 2026-05-04 19:28 | 48.01599 | 16.26340 | 2402 ft | 81 kts | 257° |
| 2026-05-04 19:28 | 48.01604 | 16.25411 | 2432 ft | 95 kts | 259° |
| 2026-05-04 19:28 | 48.01616 | 16.24397 | 2491 ft | 99 kts | 256° |
| 2026-05-04 19:29 | 48.01518 | 16.23409 | 2634 ft | 94 kts | 255° |
| 2026-05-04 19:29 | 48.01433 | 16.22497 | 2822 ft | 85 kts | 247° |
| 2026-05-04 19:29 | 48.01547 | 16.21535 | 2952 ft | 92 kts | 267° |
| 2026-05-04 19:29 | 48.01647 | 16.20611 | 3136 ft | 88 kts | 262° |
| 2026-05-04 19:30 | 48.01638 | 16.19706 | 3285 ft | 91 kts | 254° |
| 2026-05-04 19:30 | 48.01537 | 16.18785 | 3233 ft | 95 kts | 249° |
| 2026-05-04 19:30 | 48.01462 | 16.17767 | 3056 ft | 102 kts | 266° |
| 2026-05-04 19:30 | 48.01401 | 16.16780 | 3114 ft | 87 kts | 240° |
| 2026-05-04 19:31 | 48.01194 | 16.16015 | 3247 ft | 83 kts | 236° |
| 2026-05-04 19:31 | 48.00971 | 16.15276 | 3341 ft | 72 kts | 238° |
| 2026-05-04 19:31 | 48.00786 | 16.14520 | 3327 ft | 82 kts | 236° |
| 2026-05-04 19:31 | 48.00511 | 16.13806 | 3391 ft | 70 kts | 229° |
| 2026-05-04 19:32 | 48.00213 | 16.13211 | 3609 ft | 72 kts | 225° |
| 2026-05-04 19:32 | 47.99846 | 16.12669 | 3788 ft | 69 kts | 215° |
| 2026-05-04 19:32 | 47.99441 | 16.12269 | 3932 ft | 74 kts | 206° |
| 2026-05-04 19:32 | 47.99024 | 16.11856 | 4131 ft | 70 kts | 222° |
| 2026-05-04 19:33 | 47.98688 | 16.11238 | 4187 ft | 80 kts | 225° |
| 2026-05-04 19:33 | 47.98338 | 16.10536 | 4058 ft | 98 kts | 238° |
| 2026-05-04 19:33 | 47.98164 | 16.09555 | 4102 ft | 94 kts | 253° |
| 2026-05-04 19:33 | 47.98090 | 16.08544 | 4034 ft | 101 kts | 255° |
| 2026-05-04 19:34 | 47.98007 | 16.07524 | 4058 ft | 99 kts | 259° |
| 2026-05-04 19:34 | 47.97974 | 16.06460 | 3967 ft | 104 kts | 250° |
| 2026-05-04 19:34 | 47.97828 | 16.05450 | 3995 ft | 100 kts | 249° |
| 2026-05-04 19:34 | 47.97716 | 16.04393 | 3906 ft | 104 kts | 252° |
| 2026-05-04 19:35 | 47.97582 | 16.03413 | 4022 ft | 90 kts | 249° |
| 2026-05-04 19:35 | 47.97403 | 16.02559 | 4190 ft | 82 kts | 243° |
| 2026-05-04 19:35 | 47.97230 | 16.01766 | 4357 ft | 81 kts | 243° |
| 2026-05-04 19:35 | 47.97025 | 16.00964 | 4331 ft | 93 kts | 247° |
| 2026-05-04 19:36 | 47.96848 | 16.00026 | 4378 ft | 88 kts | 246° |
| 2026-05-04 19:36 | 47.96659 | 15.99185 | 4468 ft | 80 kts | 239° |
| 2026-05-04 19:36 | 47.96357 | 15.98506 | 4565 ft | 78 kts | 225° |
| 2026-05-04 19:36 | 47.95949 | 15.97914 | 4656 ft | 77 kts | 213° |
| 2026-05-04 19:37 | 47.95477 | 15.97540 | 4697 ft | 79 kts | 202° |
| 2026-05-04 19:37 | 47.94992 | 15.97301 | 4844 ft | 67 kts | 204° |
| 2026-05-04 19:37 | 47.94591 | 15.96804 | 4794 ft | 84 kts | 225° |
| 2026-05-04 19:37 | 47.94187 | 15.96199 | 4908 ft | 86 kts | 221° |
| 2026-05-04 19:38 | 47.93807 | 15.95497 | 4968 ft | 90 kts | 229° |
| 2026-05-04 19:38 | 47.93420 | 15.94746 | 4960 ft | 87 kts | 232° |
| 2026-05-04 19:38 | 47.93066 | 15.94024 | 5055 ft | 83 kts | 221° |
| 2026-05-04 19:38 | 47.92772 | 15.93401 | 5246 ft | 77 kts | 237° |
| 2026-05-04 19:39 | 47.92509 | 15.92655 | 5400 ft | 80 kts | 237° |
| 2026-05-04 19:39 | 47.92242 | 15.91950 | 5550 ft | 81 kts | 232° |
| 2026-05-04 19:39 | 47.91920 | 15.91291 | 5676 ft | 76 kts | 233° |
| 2026-05-04 19:39 | 47.91647 | 15.90579 | 5644 ft | 83 kts | 236° |
| 2026-05-04 19:40 | 47.91371 | 15.89812 | 5778 ft | 81 kts | 239° |
| 2026-05-04 19:40 | 47.91147 | 15.89072 | 5980 ft | 78 kts | 241° |
| 2026-05-04 19:40 | 47.90887 | 15.88272 | 6001 ft | 88 kts | 240° |
| 2026-05-04 19:40 | 47.90678 | 15.87483 | 6235 ft | 81 kts | 243° |
| 2026-05-04 19:41 | 47.90432 | 15.86732 | 6384 ft | 82 kts | 237° |
| 2026-05-04 19:41 | 47.90116 | 15.86053 | 6501 ft | 77 kts | 231° |
| 2026-05-04 19:41 | 47.89817 | 15.85379 | 6562 ft | 82 kts | 232° |
| 2026-05-04 19:41 | 47.89567 | 15.84895 | 6638 ft | 80 kts | 227° |